createdAt,value
2018-04-30T00:01:03.648Z,97011
2018-04-30T00:03:31.723Z,97019
2018-04-30T00:06:00.865Z,97019
2018-04-30T00:08:28.937Z,97016
2018-04-30T00:10:57.009Z,97003
2018-04-30T00:13:25.342Z,97004
2018-04-30T00:15:54.197Z,96980
2018-04-30T00:18:22.285Z,96994
2018-04-30T00:20:50.665Z,96992
2018-04-30T00:23:18.923Z,96983
2018-04-30T00:25:47.010Z,96980
2018-04-30T00:28:15.389Z,96989
2018-04-30T00:30:43.433Z,96995
2018-04-30T00:33:11.493Z,96990
2018-04-30T00:35:39.572Z,96986
2018-04-30T00:38:07.657Z,96994
2018-04-30T00:40:35.746Z,96992
2018-04-30T00:43:04.021Z,97001
2018-04-30T00:45:32.093Z,97012
2018-04-30T00:48:00.145Z,97012
2018-04-30T00:50:28.525Z,97005
2018-04-30T00:52:56.617Z,97016
2018-04-30T00:55:24.685Z,97023
2018-04-30T00:57:53.036Z,97025
2018-04-30T01:00:21.333Z,97022
2018-04-30T01:02:49.431Z,97024
2018-04-30T01:05:18.833Z,97038
2018-04-30T01:07:47.721Z,97041
2018-04-30T01:10:16.601Z,97057
2018-04-30T01:12:45.103Z,97066
2018-04-30T01:15:13.965Z,97079
2018-04-30T01:17:42.049Z,97092
2018-04-30T01:20:10.442Z,97084
2018-04-30T01:22:39.331Z,97090
2018-04-30T01:25:08.193Z,97096
2018-04-30T01:27:36.602Z,97108
2018-04-30T01:30:05.494Z,97106
2018-04-30T01:32:34.375Z,97104
2018-04-30T01:35:02.751Z,97105
2018-04-30T01:37:31.012Z,97097
2018-04-30T01:39:59.101Z,97090
2018-04-30T01:42:27.483Z,97090
2018-04-30T01:44:55.571Z,97095
2018-04-30T01:47:24.447Z,97104
2018-04-30T01:49:52.572Z,97092
2018-04-30T01:52:20.661Z,97071
2018-04-30T01:54:48.765Z,97091
2018-04-30T01:57:17.659Z,97078
2018-04-30T01:59:46.547Z,97102
2018-04-30T02:02:15.718Z,97094
2018-04-30T02:04:43.819Z,97105
2018-04-30T02:07:11.901Z,97111
2018-04-30T02:09:40.780Z,97106
2018-04-30T02:12:09.356Z,97094
2018-04-30T02:14:37.429Z,97103
2018-04-30T02:17:06.327Z,97093
2018-04-30T02:19:35.206Z,97099
2018-04-30T02:22:04.053Z,97109
2018-04-30T02:24:32.160Z,97119
2018-04-30T02:27:00.675Z,97120
2018-04-30T02:29:29.655Z,97103
2018-04-30T02:31:57.733Z,97105
2018-04-30T02:34:26.766Z,97111
2018-04-30T02:36:54.853Z,97116
2018-04-30T02:39:22.958Z,97125
2018-04-30T02:41:51.830Z,97141
2018-04-30T02:44:19.921Z,97131
2018-04-30T02:46:48.783Z,97118
2018-04-30T02:49:16.890Z,97125
2018-04-30T02:51:45.856Z,97128
2018-04-30T02:54:14.809Z,97125
2018-04-30T02:56:43.409Z,97120
2018-04-30T02:59:11.624Z,97129
2018-04-30T03:01:40.530Z,97124
2018-04-30T03:04:09.726Z,97142
2018-04-30T03:06:38.579Z,97128
2018-04-30T03:09:06.668Z,97129
2018-04-30T03:11:35.044Z,97133
2018-04-30T03:14:03.130Z,97129
2018-04-30T03:16:32.091Z,97125
2018-04-30T03:19:00.396Z,97119
2018-04-30T03:21:29.247Z,97118
2018-04-30T03:23:57.349Z,97131
2018-04-30T03:26:26.215Z,97139
2018-04-30T03:28:54.278Z,97160
2018-04-30T03:31:22.349Z,97159
2018-04-30T03:33:50.425Z,97186
2018-04-30T03:36:18.527Z,97174
2018-04-30T03:38:46.569Z,97174
2018-04-30T03:41:14.946Z,97175
2018-04-30T03:43:43.033Z,97173
2018-04-30T03:46:11.117Z,97178
2018-04-30T03:48:39.468Z,97181
2018-04-30T03:51:07.539Z,97176
2018-04-30T03:53:35.612Z,97171
2018-04-30T03:56:04.017Z,97172
2018-04-30T03:58:32.067Z,97192
2018-04-30T04:01:00.116Z,97186
2018-04-30T04:03:28.209Z,97183
2018-04-30T04:05:56.464Z,97168
2018-04-30T04:08:24.561Z,97176
2018-04-30T04:10:52.957Z,97179
2018-04-30T04:13:21.029Z,97172
2018-04-30T04:15:49.902Z,97161
2018-04-30T04:18:17.996Z,97158
2018-04-30T04:20:46.858Z,97164
2018-04-30T04:23:14.938Z,97174
2018-04-30T04:25:43.033Z,97172
2018-04-30T04:28:11.861Z,97174
2018-04-30T04:30:40.057Z,97193
2018-04-30T04:33:08.161Z,97204
2018-04-30T04:35:36.235Z,97211
2018-04-30T04:38:05.066Z,97225
2018-04-30T04:40:33.449Z,97230
2018-04-30T04:43:01.542Z,97238
2018-04-30T04:45:29.600Z,97247
2018-04-30T04:47:58.174Z,97247
2018-04-30T04:50:26.247Z,97254
2018-04-30T04:52:54.312Z,97255
2018-04-30T04:55:22.645Z,97267
2018-04-30T04:57:50.708Z,97269
2018-04-30T05:00:18.756Z,97274
2018-04-30T05:02:47.127Z,97276
2018-04-30T05:05:15.184Z,97274
2018-04-30T05:07:43.312Z,97278
2018-04-30T05:10:12.168Z,97277
2018-04-30T05:12:40.228Z,97277
2018-04-30T05:15:08.345Z,97273
2018-04-30T05:17:36.721Z,97279
2018-04-30T05:20:04.897Z,97286
2018-04-30T05:22:32.969Z,97285
2018-04-30T05:25:01.814Z,97291
2018-04-30T05:27:30.801Z,97301
2018-04-30T05:29:58.893Z,97299
2018-04-30T05:32:27.285Z,97296
2018-04-30T05:34:55.373Z,97295
2018-04-30T05:37:23.444Z,97300
2018-04-30T05:39:52.281Z,97315
2018-04-30T05:42:20.372Z,97327
2018-04-30T05:44:48.553Z,97324
2018-04-30T05:47:16.628Z,97317
2018-04-30T05:49:44.692Z,97313
2018-04-30T05:52:12.782Z,97319
2018-04-30T05:54:41.260Z,97333
2018-04-30T05:57:09.335Z,97320
2018-04-30T05:59:37.405Z,97318
2018-04-30T06:02:05.608Z,97308
2018-04-30T06:04:33.666Z,97309
2018-04-30T06:07:02.500Z,97310
2018-04-30T06:09:31.269Z,97325
2018-04-30T06:11:59.351Z,97324
2018-04-30T06:14:28.260Z,97325
2018-04-30T06:16:56.332Z,97334
2018-04-30T06:19:24.420Z,97326
2018-04-30T06:21:52.525Z,97339
2018-04-30T06:24:21.365Z,97346
2018-04-30T06:26:49.476Z,97342
2018-04-30T06:29:17.764Z,97338
2018-04-30T06:31:46.618Z,97325
2018-04-30T06:34:14.705Z,97324
2018-04-30T06:36:42.980Z,97316
2018-04-30T06:39:11.216Z,97319
2018-04-30T06:41:39.329Z,97324
2018-04-30T06:44:07.430Z,97318
2018-04-30T06:46:36.276Z,97323
2018-04-30T06:49:04.360Z,97324
2018-04-30T06:51:32.741Z,97325
2018-04-30T06:54:00.809Z,97333
2018-04-30T06:56:28.880Z,97321
2018-04-30T06:58:56.989Z,97313
2018-04-30T07:01:25.805Z,97308
2018-04-30T07:03:53.905Z,97298
2018-04-30T07:06:22.228Z,97298
2018-04-30T07:08:51.081Z,97296
2018-04-30T07:11:19.908Z,97290
2018-04-30T07:13:48.761Z,97289
2018-04-30T07:16:16.833Z,97290
2018-04-30T07:18:45.251Z,97299
2018-04-30T07:21:13.253Z,97303
2018-04-30T07:23:41.345Z,97298
2018-04-30T07:26:09.733Z,97306
2018-04-30T07:28:37.864Z,97308
2018-04-30T07:31:06.488Z,97314
2018-04-30T07:33:35.481Z,97306
2018-04-30T07:36:03.525Z,97317
2018-04-30T07:38:31.584Z,97301
2018-04-30T07:41:00.017Z,97295
2018-04-30T07:43:28.868Z,97286
2018-04-30T07:45:56.965Z,97288
2018-04-30T07:48:25.053Z,97293
2018-04-30T07:50:53.129Z,97285
2018-04-30T07:53:21.960Z,97289
2018-04-30T07:55:50.061Z,97312
2018-04-30T07:58:18.112Z,97313
2018-04-30T08:00:46.172Z,97316
2018-04-30T08:03:14.514Z,97314
2018-04-30T08:05:43.569Z,97323
2018-04-30T08:08:11.641Z,97325
2018-04-30T08:10:40.017Z,97330
2018-04-30T08:13:08.120Z,97323
2018-04-30T08:15:37.004Z,97312
2018-04-30T08:18:05.381Z,97331
2018-04-30T08:20:33.461Z,97312
2018-04-30T08:23:02.332Z,97304
2018-04-30T08:25:30.430Z,97300
2018-04-30T08:28:00.013Z,97296
2018-04-30T08:30:28.097Z,97337
2018-04-30T08:32:56.168Z,97293
2018-04-30T08:35:24.524Z,97297
2018-04-30T08:37:52.879Z,97293
2018-04-30T08:40:21.013Z,97304
2018-04-30T08:42:50.481Z,97301
2018-04-30T08:45:18.560Z,97286
2018-04-30T08:47:46.626Z,97294
2018-04-30T08:50:15.025Z,97300
2018-04-30T08:52:43.109Z,97305
2018-04-30T08:55:11.969Z,97301
2018-04-30T08:57:40.369Z,97307
2018-04-30T09:00:08.449Z,97305
2018-04-30T09:02:37.304Z,97301
2018-04-30T09:05:05.913Z,97286
2018-04-30T09:07:34.068Z,97306
2018-04-30T09:10:02.164Z,97286
2018-04-30T09:12:31.333Z,97287
2018-04-30T09:14:59.439Z,97308
2018-04-30T09:17:27.558Z,97309
2018-04-30T09:19:55.956Z,97309
2018-04-30T09:22:24.049Z,97316
2018-04-30T09:24:52.130Z,97311
2018-04-30T09:27:21.225Z,97309
2018-04-30T09:29:50.804Z,97315
2018-04-30T09:32:18.881Z,97312
2018-04-30T09:34:46.981Z,97313
2018-04-30T09:37:15.868Z,97327
2018-04-30T09:39:43.991Z,97321
2018-04-30T09:42:12.085Z,97341
2018-04-30T09:44:40.165Z,97345
2018-04-30T09:47:08.249Z,97330
2018-04-30T09:49:36.300Z,97317
2018-04-30T09:52:04.697Z,97317
2018-04-30T09:54:32.769Z,97317
2018-04-30T09:57:00.844Z,97307
2018-04-30T09:59:30.025Z,97305
2018-04-30T10:01:58.109Z,97318
2018-04-30T10:04:26.957Z,97323
2018-04-30T10:06:55.340Z,97325
2018-04-30T10:09:23.422Z,97301
2018-04-30T10:11:51.508Z,97341
2018-04-30T10:14:19.965Z,97290
2018-04-30T10:16:48.037Z,97321
2018-04-30T10:19:16.112Z,97309
2018-04-30T10:21:44.227Z,97286
2018-04-30T10:24:13.076Z,97341
2018-04-30T10:26:41.192Z,97324
2018-04-30T10:29:10.403Z,97330
2018-04-30T10:31:39.477Z,97316
2018-04-30T10:34:07.491Z,97326
2018-04-30T10:36:35.924Z,97313
2018-04-30T10:39:04.778Z,97286
2018-04-30T10:41:32.934Z,97318
2018-04-30T10:44:01.377Z,97316
2018-04-30T10:46:30.227Z,97316
2018-04-30T10:48:58.329Z,97329
2018-04-30T10:51:26.426Z,97338
2018-04-30T10:53:55.258Z,97333
2018-04-30T10:56:23.330Z,97332
2018-04-30T10:58:51.424Z,97319
2018-04-30T11:01:19.506Z,97334
2018-04-30T11:03:47.589Z,97320
2018-04-30T11:06:17.052Z,97315
2018-04-30T11:08:45.840Z,97318
2018-04-30T11:11:13.912Z,97323
2018-04-30T11:13:41.989Z,97318
2018-04-30T11:16:10.314Z,97326
2018-04-30T11:18:39.239Z,97353
2018-04-30T11:21:07.327Z,97325
2018-04-30T11:23:36.224Z,97334
2018-04-30T11:26:04.312Z,97329
2018-04-30T11:28:32.875Z,97337
2018-04-30T11:31:00.954Z,97339
2018-04-30T11:33:29.017Z,97304
2018-04-30T11:35:57.417Z,97352
2018-04-30T11:38:26.291Z,97351
2018-04-30T11:40:54.361Z,97357
2018-04-30T11:43:22.431Z,97360
2018-04-30T11:45:50.788Z,97379
2018-04-30T11:48:19.787Z,97356
2018-04-30T11:50:47.856Z,97359
2018-04-30T11:53:16.536Z,97343
2018-04-30T11:55:45.429Z,97341
2018-04-30T11:58:13.489Z,97341
2018-04-30T12:00:41.561Z,97334
2018-04-30T12:03:10.188Z,97339
2018-04-30T12:05:38.286Z,97342
2018-04-30T12:08:08.111Z,97380
2018-04-30T12:10:36.120Z,97353
2018-04-30T12:13:04.225Z,97352
2018-04-30T12:15:33.176Z,97361
2018-04-30T12:18:01.281Z,97340
2018-04-30T12:20:29.365Z,97348
2018-04-30T12:22:58.456Z,97374
2018-04-30T12:25:27.292Z,97347
2018-04-30T12:27:55.365Z,97364
2018-04-30T12:30:23.444Z,97362
2018-04-30T12:32:51.560Z,97353
2018-04-30T12:35:19.681Z,97362
2018-04-30T12:37:47.967Z,97376
2018-04-30T12:40:16.126Z,97373
2018-04-30T12:42:44.199Z,97383
2018-04-30T12:45:12.300Z,97391
2018-04-30T12:47:41.320Z,97379
2018-04-30T12:50:09.436Z,97388
2018-04-30T12:52:38.277Z,97391
2018-04-30T12:55:06.325Z,97384
2018-04-30T12:57:34.384Z,97400
2018-04-30T13:00:02.546Z,97415
2018-04-30T13:02:31.546Z,97407
2018-04-30T13:04:59.563Z,97397
2018-04-30T13:07:28.421Z,97393
2018-04-30T13:09:56.785Z,97405
2018-04-30T13:12:25.605Z,97389
2018-04-30T13:14:54.360Z,97377
2018-04-30T13:17:22.445Z,97379
2018-04-30T13:19:50.535Z,97387
2018-04-30T13:22:18.596Z,97383
2018-04-30T13:24:47.453Z,97388
2018-04-30T13:27:15.529Z,97410
2018-04-30T13:29:43.605Z,97438
2018-04-30T13:32:12.501Z,97470
2018-04-30T13:34:40.589Z,97467
2018-04-30T13:37:09.228Z,97465
2018-04-30T13:39:37.281Z,97459
2018-04-30T13:42:05.457Z,97444
2018-04-30T13:44:34.508Z,97434
2018-04-30T13:47:02.599Z,97433
2018-04-30T13:49:30.668Z,97427
2018-04-30T13:51:59.053Z,97427
2018-04-30T13:54:28.011Z,97439
2018-04-30T13:56:56.929Z,97441
2018-04-30T13:59:25.920Z,97449
2018-04-30T14:01:54.034Z,97415
2018-04-30T14:04:22.064Z,97416
2018-04-30T14:06:50.852Z,97402
2018-04-30T14:09:18.908Z,97403
2018-04-30T14:11:46.997Z,97393
2018-04-30T14:14:15.374Z,97407
2018-04-30T14:16:43.973Z,97406
2018-04-30T14:19:12.013Z,97398
2018-04-30T14:21:42.125Z,97400
2018-04-30T14:24:10.205Z,97398
2018-04-30T14:26:38.268Z,97407
2018-04-30T14:29:06.780Z,97400
2018-04-30T14:31:35.020Z,97412
2018-04-30T14:34:03.080Z,97414
2018-04-30T14:36:31.481Z,97419
2018-04-30T14:38:59.561Z,97419
2018-04-30T14:41:27.640Z,97422
2018-04-30T14:43:55.976Z,97426
2018-04-30T14:46:24.048Z,97424
2018-04-30T14:48:52.153Z,97425
2018-04-30T14:51:20.633Z,97412
2018-04-30T14:53:48.709Z,97419
2018-04-30T14:56:16.785Z,97416
2018-04-30T14:58:44.892Z,97412
2018-04-30T15:01:13.720Z,97412
2018-04-30T15:03:41.811Z,97404
2018-04-30T15:06:09.911Z,97393
2018-04-30T15:08:38.129Z,97384
2018-04-30T15:11:06.201Z,97385
2018-04-30T15:13:34.455Z,97385
2018-04-30T15:16:02.527Z,97375
2018-04-30T15:18:30.613Z,97366
2018-04-30T15:20:58.686Z,97379
2018-04-30T15:23:26.757Z,97378
2018-04-30T15:25:54.828Z,97387
2018-04-30T15:28:22.902Z,97422
2018-04-30T15:30:50.972Z,97416
2018-04-30T15:33:19.042Z,97436
2018-04-30T15:35:47.391Z,97430
2018-04-30T15:38:15.418Z,97437
2018-04-30T15:40:43.521Z,97417
2018-04-30T15:43:12.717Z,97421
2018-04-30T15:45:41.709Z,97420
2018-04-30T15:48:10.560Z,97415
2018-04-30T15:50:38.645Z,97400
2018-04-30T15:53:06.716Z,97414
2018-04-30T15:55:34.788Z,97421
2018-04-30T15:58:03.214Z,97413
2018-04-30T16:00:32.060Z,97417
2018-04-30T16:03:00.133Z,97426
2018-04-30T16:05:28.213Z,97432
2018-04-30T16:07:56.297Z,97423
2018-04-30T16:10:25.245Z,97422
2018-04-30T16:12:53.341Z,97437
2018-04-30T16:15:21.416Z,97435
2018-04-30T16:17:49.513Z,97433
2018-04-30T16:20:18.984Z,97443
2018-04-30T16:22:47.765Z,97445
2018-04-30T16:25:15.880Z,97452
2018-04-30T16:27:44.973Z,97469
2018-04-30T16:30:13.831Z,97474
2018-04-30T16:32:41.884Z,97482
2018-04-30T16:35:10.272Z,97464
2018-04-30T16:37:38.388Z,97495
2018-04-30T16:40:06.449Z,97502
2018-04-30T16:42:34.892Z,97500
2018-04-30T16:45:03.001Z,97524
2018-04-30T16:47:31.081Z,97536
2018-04-30T16:50:00.240Z,97544
2018-04-30T16:52:29.117Z,97569
2018-04-30T16:54:57.185Z,97539
2018-04-30T16:57:25.794Z,97544
2018-04-30T16:59:53.853Z,97522
2018-04-30T17:02:21.937Z,97516
2018-04-30T17:04:50.245Z,97506
2018-04-30T17:07:19.104Z,97505
2018-04-30T17:09:47.201Z,97500
2018-04-30T17:12:15.373Z,97485
2018-04-30T17:14:43.420Z,97486
2018-04-30T17:17:11.513Z,97467
2018-04-30T17:19:39.596Z,97472
2018-04-30T17:22:08.465Z,97471
2018-04-30T17:24:36.608Z,97488
2018-04-30T17:27:04.914Z,97500
2018-04-30T17:29:33.004Z,97506
2018-04-30T17:32:01.053Z,97508
2018-04-30T17:34:29.435Z,97511
2018-04-30T17:36:57.492Z,97499
2018-04-30T17:39:25.581Z,97505
2018-04-30T17:41:53.933Z,97501
2018-04-30T17:44:22.004Z,97488
2018-04-30T17:46:50.139Z,97491
2018-04-30T17:49:18.616Z,97491
2018-04-30T17:51:47.484Z,97488
2018-04-30T17:54:15.560Z,97501
2018-04-30T17:56:44.444Z,97495
2018-04-30T17:59:13.309Z,97503
2018-04-30T18:01:41.408Z,97501
2018-04-30T18:04:09.794Z,97508
2018-04-30T18:06:38.641Z,97510
2018-04-30T18:09:06.749Z,97515
2018-04-30T18:11:34.820Z,97521
2018-04-30T18:14:03.912Z,97507
2018-04-30T18:16:31.998Z,97523
2018-04-30T18:19:01.181Z,97526
2018-04-30T18:21:29.225Z,97543
2018-04-30T18:23:57.326Z,97542
2018-04-30T18:26:26.917Z,97539
2018-04-30T18:28:55.005Z,97550
2018-04-30T18:31:23.048Z,97548
2018-04-30T18:33:51.425Z,97554
2018-04-30T18:36:19.499Z,97553
2018-04-30T18:38:47.708Z,97559
2018-04-30T18:41:16.056Z,97551
2018-04-30T18:43:44.151Z,97557
2018-04-30T18:46:12.195Z,97569
2018-04-30T18:48:40.336Z,97569
2018-04-30T18:51:08.394Z,97560
2018-04-30T18:53:36.457Z,97578
2018-04-30T18:56:04.661Z,97576
2018-04-30T18:58:32.729Z,97583
2018-04-30T19:01:00.800Z,97580
2018-04-30T19:03:29.013Z,97595
2018-04-30T19:05:57.085Z,97588
2018-04-30T19:08:25.149Z,97593
2018-04-30T19:10:53.222Z,97601
2018-04-30T19:13:21.293Z,97602
2018-04-30T19:15:49.429Z,97609
2018-04-30T19:18:17.749Z,97607
2018-04-30T19:20:45.816Z,97613
2018-04-30T19:23:13.891Z,97619
2018-04-30T19:25:41.961Z,97630
2018-04-30T19:28:10.221Z,97640
2018-04-30T19:30:38.292Z,97634
2018-04-30T19:33:06.364Z,97636
2018-04-30T19:35:34.458Z,97639
2018-04-30T19:38:02.530Z,97639
2018-04-30T19:40:30.993Z,97651
2018-04-30T19:42:59.093Z,97657
2018-04-30T19:45:27.182Z,97660
2018-04-30T19:47:55.600Z,97660
2018-04-30T19:50:23.686Z,97670
2018-04-30T19:52:51.831Z,97677
2018-04-30T19:55:21.702Z,97657
2018-04-30T19:57:49.745Z,97662
2018-04-30T20:00:19.753Z,97668
2018-04-30T20:02:47.860Z,97668
2018-04-30T20:05:15.901Z,97673
2018-04-30T20:07:44.010Z,97673
2018-04-30T20:10:12.134Z,97668
2018-04-30T20:12:40.200Z,97651
2018-04-30T20:15:08.278Z,97675
2018-04-30T20:17:36.466Z,97671
2018-04-30T20:20:04.564Z,97677
2018-04-30T20:22:32.641Z,97680
2018-04-30T20:25:00.900Z,97665
2018-04-30T20:27:28.988Z,97689
2018-04-30T20:29:57.829Z,97684
2018-04-30T20:32:26.244Z,97684
2018-04-30T20:34:54.285Z,97691
2018-04-30T20:37:22.369Z,97685
2018-04-30T20:39:50.457Z,97694
2018-04-30T20:42:18.646Z,97690
2018-04-30T20:44:46.685Z,97700
2018-04-30T20:47:14.777Z,97701
2018-04-30T20:49:42.866Z,97706
2018-04-30T20:52:11.718Z,97708
2018-04-30T20:54:40.085Z,97713
2018-04-30T20:57:09.141Z,97714
2018-04-30T20:59:37.238Z,97717
2018-04-30T21:02:05.333Z,97715
2018-04-30T21:04:33.420Z,97719
2018-04-30T21:07:01.493Z,97723
2018-04-30T21:09:30.385Z,97722
2018-04-30T21:11:58.453Z,97728
2018-04-30T21:14:26.525Z,97730
2018-04-30T21:16:54.580Z,97734
2018-04-30T21:19:22.669Z,97744
2018-04-30T21:21:50.712Z,97731
2018-04-30T21:24:19.190Z,97741
2018-04-30T21:26:47.180Z,97743
2018-04-30T21:29:15.236Z,97742
2018-04-30T21:31:43.537Z,97747
2018-04-30T21:34:11.617Z,97735
2018-04-30T21:36:39.681Z,97743
2018-04-30T21:39:08.060Z,97754
2018-04-30T21:41:36.132Z,97769
2018-04-30T21:44:04.200Z,97759
2018-04-30T21:46:32.557Z,97763
2018-04-30T21:49:00.613Z,97759
2018-04-30T21:51:28.681Z,97768
2018-04-30T21:53:56.996Z,97770
2018-04-30T21:56:25.138Z,97773
2018-04-30T21:58:53.202Z,97769
2018-04-30T22:01:21.273Z,97773
2018-04-30T22:03:49.349Z,97787
2018-04-30T22:06:17.449Z,97792
2018-04-30T22:08:45.809Z,97795
2018-04-30T22:11:14.084Z,97803
2018-04-30T22:13:42.184Z,97810
2018-04-30T22:16:10.373Z,97818
2018-04-30T22:18:38.416Z,97818
2018-04-30T22:21:06.505Z,97816
2018-04-30T22:23:34.869Z,97828
2018-04-30T22:26:02.909Z,97836
2018-04-30T22:28:30.980Z,97843
2018-04-30T22:30:59.077Z,97845
2018-04-30T22:33:27.125Z,97838
2018-04-30T22:35:55.208Z,97843
2018-04-30T22:38:23.514Z,97846
2018-04-30T22:40:51.561Z,97837
2018-04-30T22:43:19.636Z,97846
2018-04-30T22:45:47.728Z,97854
2018-04-30T22:48:15.880Z,97849
2018-04-30T22:50:43.978Z,97848
2018-04-30T22:53:12.058Z,97855
2018-04-30T22:55:40.905Z,97846
2018-04-30T22:58:08.997Z,97857
2018-04-30T23:00:37.285Z,97859
2018-04-30T23:03:05.333Z,97855
2018-04-30T23:05:33.441Z,97862
2018-04-30T23:08:02.629Z,97864
2018-04-30T23:10:30.712Z,97874
2018-04-30T23:12:59.773Z,97880
2018-04-30T23:15:28.153Z,97889
2018-04-30T23:17:56.247Z,97889
2018-04-30T23:20:24.332Z,97884
2018-04-30T23:22:53.216Z,97876
2018-04-30T23:25:22.784Z,97886
2018-04-30T23:27:50.856Z,97884
2018-04-30T23:30:19.248Z,97909
2018-04-30T23:32:53.156Z,97884
2018-04-30T23:35:21.260Z,97901
2018-04-30T23:37:50.325Z,97902
2018-04-30T23:40:18.424Z,97903
2018-04-30T23:42:47.527Z,97904
2018-04-30T23:45:16.381Z,97922
2018-04-30T23:47:44.469Z,97917
2018-04-30T23:50:12.554Z,97930
2018-04-30T23:52:41.409Z,97929
2018-04-30T23:55:09.464Z,97937
2018-04-30T23:57:37.557Z,97933
